Time;durP1;ratioP1;P1;durP2;ratioP2;P2;SDS_P1;SDS_P2;PMS_P1;PMS_P2;Temp;Humidity;BMP_temperature;BMP_pressure;BME280_temperature;BME280_humidity;BME280_pressure;Samples;Min_cycle;Max_cycle;Signal;HPM_P1;HPM_P2
2023/11/20 00:01:59;;;;;;;9.67;3.00;;;9.70;99.90;;;;;;4923861;29;20234;-74
2023/11/20 00:04:25;;;;;;;12.60;2.70;;;9.70;99.90;;;;;;4917754;29;20225;-75
2023/11/20 00:06:50;;;;;;;5.23;2.80;;;9.70;99.90;;;;;;4917114;29;20189;-75
2023/11/20 00:09:16;;;;;;;5.73;2.47;;;9.60;99.90;;;;;;4915845;29;20426;-75
2023/11/20 00:11:41;;;;;;;4.00;2.23;;;9.60;99.90;;;;;;4917747;29;20661;-75
2023/11/20 00:14:07;;;;;;;9.30;2.90;;;9.60;99.90;;;;;;4917706;29;20183;-75
2023/11/20 00:16:33;;;;;;;5.53;2.70;;;9.60;99.90;;;;;;4916540;29;20179;-75
2023/11/20 00:18:59;;;;;;;5.83;2.50;;;9.60;99.90;;;;;;4916531;29;20194;-75
2023/11/20 00:21:24;;;;;;;12.03;2.80;;;9.60;99.90;;;;;;4916003;29;20843;-75
2023/11/20 00:23:50;;;;;;;8.20;4.90;;;9.60;99.90;;;;;;4931889;29;20183;-75
2023/11/20 00:26:16;;;;;;;8.43;2.53;;;9.50;99.90;;;;;;4916584;29;20190;-73
2023/11/20 00:28:42;;;;;;;4.37;2.00;;;9.50;99.90;;;;;;4917096;29;20434;-73
2023/11/20 00:31:17;;;;;;;7.77;2.57;;;9.50;99.90;;;;;;4915122;29;20186;-73
2023/11/20 00:33:42;;;;;;;10.40;2.70;;;9.50;99.90;;;;;;4916744;29;20228;-73
2023/11/20 00:36:09;;;;;;;7.20;2.60;;;9.50;99.90;;;;;;4916818;29;20493;-75
2023/11/20 00:38:35;;;;;;;6.03;2.73;;;9.50;99.90;;;;;;4915186;29;20184;-75
2023/11/20 00:41:01;;;;;;;9.40;2.60;;;9.50;99.90;;;;;;4916542;29;20534;-73
2023/11/20 00:43:27;;;;;;;15.60;4.63;;;9.50;99.90;;;;;;4917006;29;20202;-73
2023/11/20 00:45:52;;;;;;;7.53;2.47;;;9.50;99.90;;;;;;4916567;29;20472;-73
2023/11/20 00:48:18;;;;;;;7.70;2.80;;;9.40;99.90;;;;;;4916673;29;20257;-73
2023/11/20 00:50:43;;;;;;;13.60;3.13;;;9.40;99.90;;;;;;4916525;29;20650;-73
2023/11/20 00:53:09;;;;;;;6.30;2.90;;;9.30;99.90;;;;;;4916568;29;20193;-73
2023/11/20 00:55:34;;;;;;;11.93;2.93;;;9.30;99.90;;;;;;4931304;29;20209;-73
2023/11/20 00:58:00;;;;;;;11.53;2.57;;;9.30;99.90;;;;;;4916321;29;20198;-73
2023/11/20 01:00:25;;;;;;;8.47;2.40;;;9.20;99.90;;;;;;4930297;29;20206;-73
2023/11/20 01:02:51;;;;;;;12.23;3.63;;;9.20;99.90;;;;;;4915242;29;20357;-73
2023/11/20 01:05:18;;;;;;;8.80;2.80;;;9.10;99.90;;;;;;4916483;29;20202;-73
2023/11/20 01:07:44;;;;;;;13.40;3.87;;;9.10;99.90;;;;;;4915526;29;20509;-73
2023/11/20 01:10:09;;;;;;;11.53;3.43;;;9.00;99.90;;;;;;4916559;29;20994;-73
2023/11/20 01:12:36;;;;;;;10.03;2.97;;;9.00;99.90;;;;;;4915429;29;20278;-73
2023/11/20 01:15:01;;;;;;;12.23;3.50;;;9.00;99.90;;;;;;4915738;29;20198;-73
2023/11/20 01:17:27;;;;;;;11.33;3.13;;;9.00;99.90;;;;;;4915867;29;20490;-73
2023/11/20 01:19:52;;;;;;;6.27;2.87;;;9.00;99.90;;;;;;4914602;29;20273;-73
2023/11/20 01:22:18;;;;;;;9.20;2.97;;;9.00;99.90;;;;;;4912393;29;20663;-73
2023/11/20 01:24:44;;;;;;;7.23;2.40;;;9.00;99.90;;;;;;4915975;29;20197;-73
2023/11/20 01:27:09;;;;;;;9.70;2.43;;;9.00;99.90;;;;;;4916098;29;20423;-76
2023/11/20 01:29:35;;;;;;;11.03;3.00;;;9.00;99.90;;;;;;4916541;29;20226;-73
2023/11/20 01:32:00;;;;;;;6.90;2.43;;;9.00;99.90;;;;;;4914539;29;20338;-73
2023/11/20 01:36:55;;;;;;;9.17;3.03;;;9.10;99.90;;;;;;4930404;29;20243;-77
2023/11/20 01:39:20;;;;;;;10.60;2.90;;;9.10;99.90;;;;;;4923304;29;20989;-75
2023/11/20 01:41:46;;;;;;;8.00;2.87;;;9.10;99.90;;;;;;4923733;29;20256;-75
2023/11/20 01:44:12;;;;;;;7.50;2.63;;;9.10;99.90;;;;;;4935185;29;20677;-75
2023/11/20 01:46:37;;;;;;;13.00;3.10;;;9.10;99.90;;;;;;4934589;29;20209;-75
2023/11/20 01:49:04;;;;;;;10.43;2.97;;;9.10;99.90;;;;;;4932976;29;21023;-77
2023/11/20 01:51:31;;;;;;;8.53;2.83;;;9.10;99.90;;;;;;4935087;29;20219;-76
2023/11/20 01:53:58;;;;;;;7.40;2.80;;;9.20;99.90;;;;;;4945965;29;20435;-76
2023/11/20 01:56:30;;;;;;;12.23;2.90;;;9.10;99.90;;;;;;4934803;29;20481;-76
2023/11/20 01:58:59;;;;;;;8.43;2.40;;;9.10;99.90;;;;;;4917690;29;20439;-75
2023/11/20 02:01:24;;;;;;;15.10;3.40;;;9.20;99.90;;;;;;4926120;29;20863;-76
2023/11/20 02:03:59;;;;;;;9.10;2.40;;;9.20;99.90;;;;;;4926266;29;20465;-76
2023/11/20 02:06:25;;;;;;;7.60;2.20;;;9.30;99.90;;;;;;4934625;29;20841;-75
2023/11/20 02:08:51;;;;;;;6.03;2.27;;;9.40;99.90;;;;;;4934750;29;20421;-77
2023/11/20 02:11:17;;;;;;;14.40;3.50;;;9.40;99.90;;;;;;4934616;29;20554;-75
2023/11/20 02:13:43;;;;;;;5.83;2.30;;;9.30;99.90;;;;;;4934678;29;20189;-75
2023/11/20 02:16:09;;;;;;;7.97;3.47;;;9.30;99.90;;;;;;4933685;29;20976;-79
2023/11/20 02:18:35;;;;;;;6.97;2.90;;;9.20;99.90;;;;;;4934124;29;20440;-76
2023/11/20 02:21:02;;;;;;;10.10;2.50;;;9.20;99.90;;;;;;4934785;29;20788;-75
2023/11/20 02:23:28;;;;;;;8.90;3.30;;;9.20;99.90;;;;;;4935826;29;20205;-75
2023/11/20 02:26:11;;;;;;;9.93;2.80;;;9.10;99.90;;;;;;4933847;29;20836;-75
2023/11/20 02:28:45;;;;;;;11.10;2.70;;;9.10;99.90;;;;;;4928810;29;20437;-77
2023/11/20 02:31:11;;;;;;;7.87;2.90;;;9.20;99.90;;;;;;4937258;29;20963;-76
2023/11/20 02:33:37;;;;;;;6.47;2.70;;;9.20;99.90;;;;;;4938419;29;20429;-76
2023/11/20 02:36:04;;;;;;;12.33;2.40;;;9.20;99.90;;;;;;4937894;29;20260;-75
2023/11/20 02:38:31;;;;;;;10.30;4.80;;;9.20;99.90;;;;;;4937730;29;20452;-76
2023/11/20 02:40:57;;;;;;;7.30;2.73;;;9.30;99.90;;;;;;4938444;29;20421;-76
2023/11/20 02:43:23;;;;;;;10.53;2.60;;;9.30;99.90;;;;;;4937251;29;20479;-75
2023/11/20 02:45:48;;;;;;;10.20;3.90;;;9.30;99.90;;;;;;4937233;29;20461;-76
2023/11/20 02:48:14;;;;;;;7.10;2.33;;;9.30;99.90;;;;;;4937925;29;20980;-77
2023/11/20 02:50:39;;;;;;;7.60;2.30;;;9.40;99.90;;;;;;4937306;29;20232;-76
2023/11/20 02:53:05;;;;;;;3.23;1.70;;;9.40;99.90;;;;;;4937987;29;20178;-76
2023/11/20 02:55:31;;;;;;;9.43;2.73;;;9.40;99.90;;;;;;4938147;29;20692;-76
2023/11/20 02:57:56;;;;;;;8.67;3.27;;;9.40;99.90;;;;;;4937869;29;20597;-76
2023/11/20 03:00:22;;;;;;;5.97;2.27;;;9.50;99.90;;;;;;4939398;29;20276;-76
2023/11/20 03:02:47;;;;;;;5.23;2.37;;;9.50;99.90;;;;;;4937993;29;20689;-76
2023/11/20 03:05:12;;;;;;;8.07;3.60;;;9.60;99.90;;;;;;4924703;29;20602;-76
2023/11/20 03:07:38;;;;;;;7.10;3.07;;;9.60;99.90;;;;;;4935471;29;20197;-76
2023/11/20 03:10:04;;;;;;;5.93;2.20;;;9.60;99.90;;;;;;4926425;29;20186;-76
2023/11/20 03:12:30;;;;;;;8.33;2.10;;;9.70;99.90;;;;;;4933413;29;20225;-76
2023/11/20 03:14:55;;;;;;;6.50;2.10;;;9.70;99.90;;;;;;4923345;29;20807;-76
2023/11/20 03:17:21;;;;;;;5.80;3.10;;;9.70;99.90;;;;;;4934796;29;20218;-76
2023/11/20 03:19:47;;;;;;;5.67;2.10;;;9.70;99.90;;;;;;4937638;29;20264;-77
2023/11/20 03:22:12;;;;;;;3.97;2.40;;;9.80;99.90;;;;;;4935668;29;20206;-76
2023/11/20 03:24:38;;;;;;;9.67;2.50;;;9.80;99.90;;;;;;4933585;29;21039;-76
2023/11/20 03:27:04;;;;;;;7.63;2.47;;;9.80;99.90;;;;;;4934242;29;20186;-78
2023/11/20 03:29:30;;;;;;;10.40;2.27;;;9.90;99.90;;;;;;4930690;29;20181;-76
2023/11/20 03:31:55;;;;;;;8.77;2.43;;;9.90;99.90;;;;;;4933564;29;20174;-76
2023/11/20 03:34:21;;;;;;;7.77;2.73;;;9.90;99.90;;;;;;4930976;29;20528;-76
2023/11/20 03:36:46;;;;;;;6.90;2.67;;;9.90;99.90;;;;;;4936859;29;20217;-76
2023/11/20 03:39:12;;;;;;;11.00;2.73;;;9.90;99.90;;;;;;4936625;29;20225;-76
2023/11/20 03:41:37;;;;;;;4.50;2.70;;;10.00;99.90;;;;;;4936252;29;20197;-76
2023/11/20 03:44:03;;;;;;;4.60;1.73;;;10.00;99.90;;;;;;4929552;29;20182;-77
2023/11/20 03:46:28;;;;;;;6.40;2.20;;;10.00;99.90;;;;;;4933240;29;20237;-76
2023/11/20 03:48:54;;;;;;;6.93;3.20;;;10.00;99.90;;;;;;4923960;29;20224;-76
2023/11/20 03:51:20;;;;;;;8.10;2.23;;;10.10;99.90;;;;;;4929127;29;20528;-77
2023/11/20 03:53:45;;;;;;;4.37;2.07;;;10.10;99.90;;;;;;4937000;29;20228;-76
2023/11/20 03:56:12;;;;;;;6.93;2.60;;;10.10;99.90;;;;;;4936618;29;20194;-76
2023/11/20 03:58:38;;;;;;;8.13;2.70;;;10.10;99.90;;;;;;4924632;29;20815;-76
2023/11/20 04:01:04;;;;;;;9.43;2.57;;;10.20;99.90;;;;;;4933959;29;20444;-78
2023/11/20 04:03:29;;;;;;;3.37;1.93;;;10.20;99.90;;;;;;4936799;29;20221;-76
2023/11/20 04:05:55;;;;;;;8.10;3.00;;;10.20;99.90;;;;;;4936173;29;20224;-77
2023/11/20 04:08:21;;;;;;;4.93;2.47;;;10.30;99.90;;;;;;4934222;29;20396;-76
2023/11/20 04:10:46;;;;;;;8.47;2.90;;;10.30;99.90;;;;;;4936217;29;20177;-77
2023/11/20 04:13:12;;;;;;;6.53;2.40;;;10.30;99.90;;;;;;4932628;29;20443;-77
2023/11/20 04:15:37;;;;;;;10.23;2.17;;;10.20;99.90;;;;;;4936668;29;20208;-76
2023/11/20 04:18:03;;;;;;;8.83;2.47;;;10.20;99.90;;;;;;4936481;29;20174;-77
2023/11/20 04:20:29;;;;;;;7.33;2.83;;;10.10;99.90;;;;;;4936198;29;20186;-76
2023/11/20 04:22:54;;;;;;;9.13;3.10;;;10.10;99.90;;;;;;4936157;29;20212;-77
2023/11/20 04:25:21;;;;;;;8.53;2.77;;;10.00;99.90;;;;;;4944866;29;20233;-77
2023/11/20 04:27:51;;;;;;;7.23;2.57;;;9.90;99.90;;;;;;4939720;28;20224;-76
2023/11/20 04:30:20;;;;;;;7.63;2.13;;;9.90;99.90;;;;;;4934233;29;20437;-77
2023/11/20 04:32:46;;;;;;;9.27;2.53;;;9.80;99.90;;;;;;4942992;29;20424;-77
2023/11/20 04:35:11;;;;;;;5.67;2.47;;;9.80;99.90;;;;;;4955409;28;20530;-77
2023/11/20 04:37:37;;;;;;;5.63;2.90;;;9.80;99.90;;;;;;4941113;29;20201;-77
2023/11/20 04:40:03;;;;;;;6.47;2.50;;;9.80;99.90;;;;;;4936285;29;20186;-77
2023/11/20 04:42:29;;;;;;;9.37;2.70;;;9.70;99.90;;;;;;4935375;29;20235;-77
2023/11/20 04:44:54;;;;;;;10.63;2.10;;;9.70;99.90;;;;;;4935382;29;20573;-77
2023/11/20 04:47:20;;;;;;;7.30;4.23;;;9.70;99.90;;;;;;4927432;29;20526;-76
2023/11/20 04:49:45;;;;;;;7.90;2.30;;;9.70;99.90;;;;;;4933449;29;20196;-77
2023/11/20 04:52:11;;;;;;;12.67;3.50;;;9.70;99.90;;;;;;4933549;29;20185;-76
2023/11/20 04:54:36;;;;;;;9.83;2.70;;;9.80;99.90;;;;;;4935795;29;20209;-77
2023/11/20 04:57:02;;;;;;;8.17;2.10;;;9.80;99.90;;;;;;4928204;29;20571;-77
2023/11/20 04:59:28;;;;;;;4.90;2.00;;;9.90;99.90;;;;;;4935834;29;20174;-78
2023/11/20 05:01:53;;;;;;;8.23;2.20;;;9.90;99.90;;;;;;4929068;29;20237;-77
2023/11/20 05:04:21;;;;;;;8.10;2.23;;;9.90;99.90;;;;;;4933594;29;20697;-77
2023/11/20 05:06:47;;;;;;;8.67;2.40;;;9.90;99.90;;;;;;4935282;29;20193;-77
2023/11/20 05:09:12;;;;;;;10.27;3.03;;;9.90;99.90;;;;;;4935771;29;20812;-77
2023/11/20 05:11:38;;;;;;;11.23;2.57;;;9.90;99.90;;;;;;4929436;29;20182;-77
2023/11/20 05:14:04;;;;;;;8.53;2.50;;;9.90;99.90;;;;;;4933567;29;20184;-77
2023/11/20 05:16:30;;;;;;;8.73;2.30;;;10.00;99.90;;;;;;4934756;29;20827;-77
2023/11/20 05:18:56;;;;;;;7.87;2.23;;;10.00;99.90;;;;;;4934827;29;20448;-77
2023/11/20 05:21:22;;;;;;;5.97;2.80;;;10.00;99.90;;;;;;4938306;29;20177;-77
2023/11/20 05:23:48;;;;;;;9.13;3.03;;;10.10;99.90;;;;;;4933298;29;20303;-77
2023/11/20 05:26:18;;;;;;;13.87;3.17;;;10.10;99.90;;;;;;4934516;29;20252;-77
2023/11/20 05:28:43;;;;;;;6.87;2.97;;;10.10;99.90;;;;;;4931353;29;21008;-77
2023/11/20 05:31:09;;;;;;;5.70;1.97;;;10.10;99.90;;;;;;4932972;29;20442;-77
2023/11/20 05:33:34;;;;;;;8.00;2.67;;;10.10;99.90;;;;;;4930816;29;20517;-77
2023/11/20 05:36:00;;;;;;;6.43;2.00;;;10.10;99.90;;;;;;4934034;29;20213;-77
2023/11/20 05:38:26;;;;;;;5.90;2.73;;;10.00;99.90;;;;;;4934707;29;20190;-77
2023/11/20 05:40:51;;;;;;;7.70;2.20;;;10.10;99.90;;;;;;4934806;29;20185;-77
2023/11/20 05:43:17;;;;;;;9.30;3.00;;;10.10;99.90;;;;;;4926699;29;20292;-77
2023/11/20 05:45:42;;;;;;;18.57;3.93;;;10.10;99.90;;;;;;4935054;29;20198;-77
2023/11/20 05:48:08;;;;;;;6.90;1.80;;;10.10;99.90;;;;;;4934244;29;20284;-77
2023/11/20 05:50:34;;;;;;;15.07;2.30;;;10.10;99.90;;;;;;4930088;29;20170;-77
2023/11/20 05:52:59;;;;;;;7.77;3.10;;;10.10;99.90;;;;;;4925345;29;20200;-77
2023/11/20 05:55:29;;;;;;;6.43;2.03;;;10.10;99.90;;;;;;4932817;29;20297;-77
2023/11/20 05:58:01;;;;;;;10.57;2.37;;;10.10;99.90;;;;;;4926298;29;20193;-77
2023/11/20 06:00:29;;;;;;;6.23;2.03;;;10.10;99.90;;;;;;4926722;29;20444;-77
2023/11/20 06:02:55;;;;;;;6.97;2.17;;;10.10;99.90;;;;;;4933721;29;20456;-77
2023/11/20 06:05:21;;;;;;;12.57;3.20;;;10.20;99.90;;;;;;4933158;29;20944;-77
2023/11/20 06:07:47;;;;;;;7.30;2.33;;;10.20;99.90;;;;;;4934200;29;20472;-77
2023/11/20 06:10:12;;;;;;;10.17;3.37;;;10.20;99.90;;;;;;4934848;29;20217;-77
2023/11/20 06:12:39;;;;;;;5.73;2.27;;;10.20;99.90;;;;;;4931560;29;20186;-77
2023/11/20 06:15:05;;;;;;;8.97;2.13;;;10.20;99.90;;;;;;4925146;29;20213;-77
2023/11/20 06:17:31;;;;;;;6.40;2.20;;;10.30;99.90;;;;;;4945633;29;20440;-77
2023/11/20 06:19:57;;;;;;;8.83;2.30;;;10.30;99.90;;;;;;4936630;29;20428;-77
2023/11/20 06:22:22;;;;;;;6.43;2.03;;;10.30;99.90;;;;;;4933149;29;20520;-77
2023/11/20 06:24:48;;;;;;;6.93;1.77;;;10.20;99.90;;;;;;4933749;29;20208;-77
2023/11/20 06:27:13;;;;;;;7.20;2.17;;;10.20;99.90;;;;;;4927136;29;20640;-77
2023/11/20 06:29:39;;;;;;;6.20;2.50;;;10.20;99.90;;;;;;4934567;29;20286;-77
2023/11/20 06:32:06;;;;;;;12.53;3.13;;;10.20;99.90;;;;;;4927487;29;20216;-77
2023/11/20 06:34:35;;;;;;;9.90;2.80;;;10.20;99.90;;;;;;4932982;29;21057;-77
2023/11/20 06:37:01;;;;;;;6.57;1.93;;;10.20;99.90;;;;;;4926657;29;20581;-77
2023/11/20 06:39:26;;;;;;;7.67;2.20;;;10.20;99.90;;;;;;4934049;29;20528;-77
2023/11/20 06:41:52;;;;;;;8.07;2.53;;;10.20;99.90;;;;;;4924646;29;20217;-77
2023/11/20 06:44:18;;;;;;;15.27;3.60;;;10.20;99.90;;;;;;4924274;29;20185;-77
2023/11/20 06:46:44;;;;;;;7.57;2.33;;;10.30;99.90;;;;;;4928153;29;20205;-76
2023/11/20 06:49:09;;;;;;;6.07;3.60;;;10.30;99.90;;;;;;4927970;29;20178;-77
2023/11/20 06:51:35;;;;;;;3.80;1.80;;;10.30;99.90;;;;;;4934109;29;20197;-77
2023/11/20 06:54:01;;;;;;;10.73;2.50;;;10.30;99.90;;;;;;4934125;29;20170;-77
2023/11/20 06:56:26;;;;;;;10.30;2.17;;;10.30;99.90;;;;;;4933925;29;20197;-77
2023/11/20 06:58:56;;;;;;;5.90;2.30;;;10.30;99.90;;;;;;4933103;29;20219;-77
2023/11/20 07:01:22;;;;;;;9.90;2.40;;;10.30;99.90;;;;;;4933029;29;20425;-77
2023/11/20 07:03:48;;;;;;;5.07;1.80;;;10.30;99.90;;;;;;4934106;29;20657;-77
2023/11/20 07:06:17;;;;;;;8.70;2.53;;;10.30;99.90;;;;;;4933960;29;20451;-77
2023/11/20 07:08:42;;;;;;;6.10;2.20;;;10.40;99.90;;;;;;4934194;29;20177;-77
2023/11/20 07:11:09;;;;;;;5.20;3.03;;;10.40;99.90;;;;;;4934219;29;20804;-77
2023/11/20 07:13:34;;;;;;;9.87;2.70;;;10.40;99.90;;;;;;4934312;29;20603;-77
2023/11/20 07:16:00;;;;;;;3.90;1.80;;;10.40;99.90;;;;;;4934232;29;20441;-77
2023/11/20 07:18:26;;;;;;;4.77;2.50;;;10.50;99.90;;;;;;4936758;29;20178;-77
2023/11/20 07:20:53;;;;;;;6.93;2.53;;;10.40;99.90;;;;;;4937505;29;20952;-76
2023/11/20 07:23:19;;;;;;;10.73;2.20;;;10.40;99.90;;;;;;4937727;29;20205;-76
2023/11/20 07:25:45;;;;;;;5.87;2.13;;;10.50;99.90;;;;;;4937510;29;20449;-77
2023/11/20 07:28:11;;;;;;;5.43;1.93;;;10.60;99.90;;;;;;4937296;29;20240;-76
2023/11/20 07:30:37;;;;;;;4.70;1.70;;;10.50;99.90;;;;;;4936330;29;20921;-76
2023/11/20 07:33:03;;;;;;;6.90;2.17;;;10.60;99.90;;;;;;4937167;29;20181;-76
2023/11/20 07:35:29;;;;;;;5.47;3.23;;;10.70;99.90;;;;;;4953527;23;21177;-74
2023/11/20 07:37:55;;;;;;;4.73;1.60;;;10.70;99.90;;;;;;4917736;29;20626;-74
2023/11/20 07:40:21;;;;;;;9.93;2.73;;;10.70;99.90;;;;;;4899775;29;20164;-74
2023/11/20 07:42:47;;;;;;;9.37;2.27;;;10.80;99.90;;;;;;4917194;29;20488;-74
2023/11/20 07:45:12;;;;;;;6.67;2.47;;;10.80;99.90;;;;;;4917138;29;20683;-74
2023/11/20 07:47:39;;;;;;;8.83;1.97;;;10.90;99.90;;;;;;4918000;29;20430;-75
2023/11/20 07:50:06;;;;;;;6.47;2.60;;;11.00;99.90;;;;;;4904354;29;20189;-74
2023/11/20 07:52:32;;;;;;;8.57;2.23;;;11.10;99.90;;;;;;4899214;29;20851;-74
2023/11/20 07:54:57;;;;;;;14.77;3.23;;;11.10;99.90;;;;;;4898846;29;20435;-74
2023/11/20 07:57:24;;;;;;;5.17;1.73;;;11.10;99.90;;;;;;4898993;29;20797;-74
2023/11/20 07:59:50;;;;;;;10.03;2.37;;;11.10;99.90;;;;;;4895712;29;20547;-74
2023/11/20 08:02:16;;;;;;;3.00;1.93;;;11.00;99.90;;;;;;4901753;29;20474;-74
2023/11/20 08:04:42;;;;;;;6.83;1.97;;;11.10;99.90;;;;;;4898653;29;20440;-75
2023/11/20 08:07:08;;;;;;;5.50;2.00;;;11.00;99.90;;;;;;4898689;29;20818;-74
2023/11/20 08:09:33;;;;;;;6.43;1.60;;;11.10;99.90;;;;;;4898913;29;20427;-73
2023/11/20 08:11:59;;;;;;;4.47;2.37;;;11.10;99.90;;;;;;4898994;29;20266;-74
2023/11/20 08:14:25;;;;;;;8.60;2.10;;;11.20;99.90;;;;;;4898888;29;20190;-75
2023/11/20 08:16:50;;;;;;;9.70;1.97;;;11.20;99.90;;;;;;4912892;29;20235;-73
2023/11/20 08:19:16;;;;;;;11.33;3.60;;;11.30;99.90;;;;;;4898555;29;20302;-75
2023/11/20 08:21:42;;;;;;;5.87;2.00;;;11.30;99.90;;;;;;4898752;29;20289;-74
2023/11/20 08:24:09;;;;;;;9.47;2.67;;;11.30;99.90;;;;;;4898721;29;20210;-72
2023/11/20 08:26:34;;;;;;;8.57;4.30;;;11.20;99.90;;;;;;4898322;29;20187;-74
2023/11/20 08:29:00;;;;;;;5.20;2.20;;;11.30;99.90;;;;;;4898417;29;20426;-72
2023/11/20 08:31:25;;;;;;;7.93;2.43;;;11.30;99.90;;;;;;4898469;29;20176;-74
2023/11/20 08:33:51;;;;;;;6.23;3.03;;;11.30;99.90;;;;;;4898295;29;20197;-74
2023/11/20 08:36:17;;;;;;;9.90;4.50;;;11.30;99.90;;;;;;4898244;29;20376;-74
2023/11/20 08:38:42;;;;;;;7.70;2.87;;;11.20;99.90;;;;;;4898522;29;20175;-73
2023/11/20 08:41:11;;;;;;;6.33;2.03;;;11.20;99.90;;;;;;4898480;29;20175;-73
2023/11/20 08:43:36;;;;;;;7.60;2.47;;;11.20;99.90;;;;;;4898275;29;20701;-74
2023/11/20 08:46:03;;;;;;;8.53;1.87;;;11.20;99.90;;;;;;4898124;29;20455;-74
2023/11/20 08:48:28;;;;;;;6.47;2.80;;;11.20;99.90;;;;;;4897697;29;20715;-73
2023/11/20 08:50:54;;;;;;;9.07;2.97;;;11.20;99.90;;;;;;4911485;29;20426;-74
2023/11/20 08:53:21;;;;;;;7.47;3.03;;;11.10;99.90;;;;;;4907883;29;20620;-74
2023/11/20 08:55:48;;;;;;;9.10;3.70;;;11.20;99.90;;;;;;4898084;29;20454;-73
2023/11/20 08:58:13;;;;;;;4.00;2.33;;;11.20;99.90;;;;;;4897718;29;20435;-72
2023/11/20 09:00:39;;;;;;;6.07;2.30;;;11.10;99.90;;;;;;4897835;29;20449;-73
2023/11/20 09:03:04;;;;;;;5.03;2.03;;;11.10;99.90;;;;;;4897481;29;20214;-73
2023/11/20 09:05:30;;;;;;;3.17;1.90;;;11.20;99.90;;;;;;4897667;29;20203;-74
2023/11/20 09:07:57;;;;;;;7.17;1.97;;;11.10;99.90;;;;;;4911918;29;20225;-74
2023/11/20 09:10:23;;;;;;;5.53;2.87;;;11.10;99.90;;;;;;4897961;29;20171;-73
2023/11/20 09:12:50;;;;;;;6.57;3.70;;;11.10;99.90;;;;;;4897620;29;20427;-73
2023/11/20 09:15:16;;;;;;;8.50;2.83;;;11.00;99.90;;;;;;4897652;29;20191;-73
2023/11/20 09:17:42;;;;;;;3.27;2.83;;;11.10;99.90;;;;;;4897263;29;20439;-73
2023/11/20 09:20:12;;;;;;;4.77;2.03;;;11.10;99.90;;;;;;4897673;29;20930;-73
2023/11/20 09:22:40;;;;;;;3.70;1.90;;;11.30;99.90;;;;;;4897495;29;20804;-72
2023/11/20 09:25:07;;;;;;;7.70;2.63;;;11.30;99.90;;;;;;4896063;29;20438;-72
2023/11/20 09:27:33;;;;;;;10.13;2.80;;;11.40;99.90;;;;;;4896854;29;20426;-72
2023/11/20 09:29:59;;;;;;;6.10;3.27;;;11.40;99.90;;;;;;4897511;29;20435;-73
2023/11/20 09:32:26;;;;;;;7.23;3.23;;;11.40;99.90;;;;;;4897215;29;20424;-73
2023/11/20 09:34:52;;;;;;;9.23;2.37;;;11.40;99.90;;;;;;4897258;29;20560;-73
2023/11/20 09:37:17;;;;;;;6.43;2.60;;;11.60;99.90;;;;;;4927373;29;20526;-73
2023/11/20 09:39:46;;;;;;;7.60;2.93;;;11.80;99.90;;;;;;4896641;29;20261;-73
2023/11/20 09:42:14;;;;;;;3.63;2.00;;;12.50;99.90;;;;;;4896670;29;20194;-74
2023/11/20 09:44:46;;;;;;;5.10;2.30;;;13.50;99.90;;;;;;4896839;29;20461;-74
2023/11/20 09:47:13;;;;;;;5.53;2.83;;;15.20;99.90;;;;;;4897067;29;20469;-75
2023/11/20 09:49:42;;;;;;;11.50;4.43;;;16.70;99.90;;;;;;4896656;29;20462;-74
2023/11/20 09:52:09;;;;;;;4.37;2.63;;;17.20;99.90;;;;;;4896930;29;20514;-74
2023/11/20 09:54:37;;;;;;;14.10;5.03;;;17.10;99.90;;;;;;4896974;29;20434;-74
2023/11/20 09:57:04;;;;;;;10.50;3.00;;;17.60;99.90;;;;;;4896711;29;20451;-74
2023/11/20 09:59:29;;;;;;;7.70;2.43;;;17.40;99.90;;;;;;4895120;29;20950;-74
2023/11/20 10:01:58;;;;;;;5.50;2.17;;;16.50;99.90;;;;;;4896326;29;20469;-74
2023/11/20 10:04:24;;;;;;;7.50;2.73;;;15.00;99.90;;;;;;4896317;29;20553;-74
2023/11/20 10:06:54;;;;;;;7.10;2.80;;;13.80;99.90;;;;;;4896515;29;20801;-74
2023/11/20 10:09:22;;;;;;;5.20;2.40;;;13.50;99.90;;;;;;4896863;29;20427;-74
2023/11/20 10:11:52;;;;;;;7.47;2.63;;;13.20;99.90;;;;;;4911264;29;20950;-76
2023/11/20 10:14:19;;;;;;;7.97;4.00;;;13.20;99.90;;;;;;4897134;29;20439;-75
2023/11/20 10:16:46;;;;;;;7.50;2.77;;;13.10;99.90;;;;;;4899081;29;20534;-74
2023/11/20 10:19:14;;;;;;;5.33;2.07;;;13.20;99.90;;;;;;4902270;29;20442;-74
2023/11/20 10:21:40;;;;;;;4.67;2.20;;;13.30;99.90;;;;;;4896610;29;20451;-74
2023/11/20 10:24:07;;;;;;;9.50;3.00;;;14.20;99.90;;;;;;4899738;29;20455;-73
2023/11/20 10:26:33;;;;;;;11.10;2.73;;;14.50;99.90;;;;;;4897200;29;20511;-73
2023/11/20 10:28:59;;;;;;;7.43;2.63;;;14.00;99.90;;;;;;4897757;29;20777;-73
2023/11/20 10:31:27;;;;;;;4.47;2.60;;;13.80;99.90;;;;;;4897493;29;20785;-73
2023/11/20 10:34:09;;;;;;;7.63;2.83;;;13.60;99.90;;;;;;4902294;29;20438;-73
2023/11/20 10:36:37;;;;;;;6.63;1.70;;;13.90;99.90;;;;;;4901606;29;20889;-73
2023/11/20 10:39:04;;;;;;;3.83;2.47;;;14.10;99.90;;;;;;4888423;29;20475;-74
2023/11/20 10:41:29;;;;;;;6.90;2.10;;;14.00;99.90;;;;;;4905193;29;20491;-73
2023/11/20 10:43:59;;;;;;;3.77;2.00;;;14.50;99.90;;;;;;4900879;29;20438;-73
2023/11/20 10:46:28;;;;;;;5.20;1.77;;;14.60;99.90;;;;;;4905832;29;20213;-73
2023/11/20 10:48:54;;;;;;;3.23;1.57;;;14.10;99.90;;;;;;4895637;29;20517;-74
2023/11/20 10:51:22;;;;;;;7.30;3.90;;;14.70;99.90;;;;;;4897132;29;20431;-73
2023/11/20 10:54:01;;;;;;;6.83;2.07;;;15.50;99.90;;;;;;4899175;29;20470;-67
2023/11/20 10:56:31;;;;;;;4.77;2.57;;;16.20;99.90;;;;;;4898648;29;20458;-75
2023/11/20 10:59:00;;;;;;;5.97;2.10;;;17.60;99.90;;;;;;4899176;29;20515;-75
2023/11/20 11:01:29;;;;;;;4.60;2.00;;;17.00;99.90;;;;;;4897436;29;20537;-67
2023/11/20 11:03:57;;;;;;;8.80;2.67;;;16.30;99.90;;;;;;4898695;29;20957;-68
2023/11/20 11:06:24;;;;;;;3.80;2.23;;;17.50;99.90;;;;;;4898620;29;20523;-68
2023/11/20 11:08:51;;;;;;;4.23;2.10;;;18.80;99.90;;;;;;4898817;29;20427;-68
2023/11/20 11:11:18;;;;;;;4.40;1.83;;;19.50;96.60;;;;;;4898866;29;20434;-65
2023/11/20 11:13:44;;;;;;;4.03;1.57;;;19.00;96.60;;;;;;4898499;29;20998;-65
2023/11/20 11:16:17;;;;;;;6.03;2.20;;;17.40;99.90;;;;;;4897780;29;20823;-65
2023/11/20 11:18:48;;;;;;;5.50;2.03;;;16.40;99.90;;;;;;4898515;29;20478;-65
2023/11/20 11:21:16;;;;;;;5.70;3.27;;;15.30;99.90;;;;;;4897319;29;20930;-65
2023/11/20 11:23:51;;;;;;;5.70;1.90;;;14.30;99.90;;;;;;4898693;29;20475;-66
2023/11/20 11:26:38;;;;;;;4.73;1.60;;;13.20;99.90;;;;;;4898682;29;20434;-66
2023/11/20 11:29:12;;;;;;;2.80;1.83;;;12.50;99.90;;;;;;4869162;29;20514;-66
2023/11/20 11:31:56;;;;;;;4.83;1.60;;;12.10;99.90;;;;;;4880066;29;20443;-66
2023/11/20 11:34:44;;;;;;;4.47;2.00;;;11.90;99.90;;;;;;4882274;29;20435;-66
2023/11/20 11:37:32;;;;;;;5.67;1.60;;;11.80;99.90;;;;;;4864220;29;1035316;-66
2023/11/20 11:40:09;;;;;;;5.57;2.20;;;11.80;99.90;;;;;;4893159;29;20194;-68
2023/11/20 11:42:42;;;;;;;2.90;1.93;;;11.80;99.90;;;;;;4899046;29;21008;-68
2023/11/20 11:45:17;;;;;;;2.30;1.60;;;11.70;99.90;;;;;;4899277;29;20458;-68
2023/11/20 11:47:47;;;;;;;4.20;1.90;;;11.60;99.90;;;;;;4898943;29;20431;-68
2023/11/20 11:50:18;;;;;;;2.23;1.30;;;11.50;99.90;;;;;;4899024;29;20441;-68
2023/11/20 11:52:50;;;;;;;4.50;1.40;;;11.50;99.90;;;;;;4899526;29;20474;-68
2023/11/20 11:55:16;;;;;;;2.73;1.40;;;11.60;99.90;;;;;;4895652;29;20463;-69
2023/11/20 11:57:42;;;;;;;4.67;1.50;;;12.30;99.90;;;;;;4897030;29;20957;-70
2023/11/20 12:00:12;;;;;;;1.70;1.30;;;14.90;99.90;;;;;;4899419;29;20429;-70
2023/11/20 12:02:53;;;;;;;1.17;1.10;;;18.30;99.90;;;;;;4910003;29;20473;-70
2023/11/20 12:05:19;;;;;;;1.67;1.27;;;21.10;99.90;;;;;;4906561;29;20956;-70
2023/11/20 12:07:58;;;;;;;1.10;0.97;;;23.70;90.20;;;;;;4908444;29;20419;-70
2023/11/20 12:10:45;;;;;;;1.33;1.20;;;25.20;70.80;;;;;;4907095;29;20459;-70
2023/11/20 12:13:17;;;;;;;2.17;1.50;;;22.60;71.80;;;;;;4908611;29;20434;-70
2023/11/20 12:15:46;;;;;;;4.53;1.60;;;19.50;90.80;;;;;;4907937;29;20455;-69
2023/11/20 12:18:16;;;;;;;4.43;1.60;;;17.20;99.90;;;;;;4906664;29;20439;-70
2023/11/20 12:21:01;;;;;;;2.93;1.27;;;15.30;99.90;;;;;;4921608;29;20443;-69
2023/11/20 12:23:42;;;;;;;3.27;1.90;;;14.10;99.90;;;;;;4905343;29;20495;-70
2023/11/20 12:26:09;;;;;;;5.03;2.73;;;13.60;99.90;;;;;;4879954;29;20452;-69
2023/11/20 12:28:36;;;;;;;5.13;1.60;;;13.30;99.90;;;;;;4894075;29;20432;-69
2023/11/20 12:31:04;;;;;;;3.53;1.80;;;13.10;99.90;;;;;;4891060;29;20772;-69
2023/11/20 12:33:33;;;;;;;6.67;2.37;;;13.40;99.90;;;;;;4898556;29;20423;-69
2023/11/20 12:36:00;;;;;;;5.63;2.27;;;13.80;99.90;;;;;;4897703;29;20499;-69
2023/11/20 12:38:27;;;;;;;3.40;1.87;;;15.20;99.90;;;;;;4898329;29;20793;-69
2023/11/20 12:40:54;;;;;;;3.27;1.97;;;16.10;99.90;;;;;;4897215;29;20446;-70
2023/11/20 12:43:21;;;;;;;3.80;2.03;;;16.60;99.90;;;;;;4898124;29;20562;-69
2023/11/20 12:45:47;;;;;;;2.90;2.17;;;16.70;99.90;;;;;;4897258;29;20443;-68
2023/11/20 12:48:13;;;;;;;3.83;2.10;;;17.30;99.90;;;;;;4897685;29;20443;-69
2023/11/20 12:50:38;;;;;;;2.20;1.57;;;20.30;99.90;;;;;;4898076;29;20753;-69